sensor_id;sensor_type;location;lat;lon;timestamp;P1;durP1;ratioP1;P2;durP2;ratioP2
12871;SDS011;6504;53.766;9.626;2023-08-24T00:01:37;2.07;;;1.83;;
12871;SDS011;6504;53.766;9.626;2023-08-24T00:04:05;2.50;;;2.30;;
12871;SDS011;6504;53.766;9.626;2023-08-24T00:06:34;2.73;;;2.30;;
12871;SDS011;6504;53.766;9.626;2023-08-24T00:09:04;2.30;;;2.10;;
12871;SDS011;6504;53.766;9.626;2023-08-24T00:11:32;1.80;;;1.70;;
12871;SDS011;6504;53.766;9.626;2023-08-24T00:14:00;1.80;;;1.70;;
12871;SDS011;6504;53.766;9.626;2023-08-24T00:16:28;4.30;;;1.63;;
12871;SDS011;6504;53.766;9.626;2023-08-24T00:18:56;1.50;;;1.40;;
12871;SDS011;6504;53.766;9.626;2023-08-24T00:21:24;1.43;;;1.27;;
12871;SDS011;6504;53.766;9.626;2023-08-24T00:23:52;1.30;;;1.20;;
12871;SDS011;6504;53.766;9.626;2023-08-24T00:26:22;0.90;;;0.90;;
12871;SDS011;6504;53.766;9.626;2023-08-24T00:28:51;1.20;;;1.10;;
12871;SDS011;6504;53.766;9.626;2023-08-24T00:31:20;1.43;;;1.33;;
12871;SDS011;6504;53.766;9.626;2023-08-24T00:33:48;1.10;;;1.00;;
12871;SDS011;6504;53.766;9.626;2023-08-24T00:36:17;0.80;;;0.80;;
12871;SDS011;6504;53.766;9.626;2023-08-24T00:38:47;0.80;;;0.80;;
12871;SDS011;6504;53.766;9.626;2023-08-24T00:41:17;1.73;;;1.17;;
12871;SDS011;6504;53.766;9.626;2023-08-24T00:43:49;1.43;;;1.33;;
12871;SDS011;6504;53.766;9.626;2023-08-24T00:46:17;1.47;;;1.37;;
12871;SDS011;6504;53.766;9.626;2023-08-24T00:48:45;1.37;;;1.27;;
12871;SDS011;6504;53.766;9.626;2023-08-24T00:51:14;1.43;;;1.33;;
12871;SDS011;6504;53.766;9.626;2023-08-24T00:53:42;0.97;;;0.97;;
12871;SDS011;6504;53.766;9.626;2023-08-24T00:56:10;1.30;;;1.20;;
12871;SDS011;6504;53.766;9.626;2023-08-24T00:58:39;1.07;;;1.00;;
12871;SDS011;6504;53.766;9.626;2023-08-24T01:01:09;1.43;;;1.33;;
12871;SDS011;6504;53.766;9.626;2023-08-24T01:03:37;1.60;;;1.50;;
12871;SDS011;6504;53.766;9.626;2023-08-24T01:06:05;2.30;;;2.10;;
12871;SDS011;6504;53.766;9.626;2023-08-24T01:08:34;2.60;;;2.40;;
12871;SDS011;6504;53.766;9.626;2023-08-24T01:11:04;2.37;;;2.17;;
12871;SDS011;6504;53.766;9.626;2023-08-24T01:13:42;1.73;;;1.63;;
12871;SDS011;6504;53.766;9.626;2023-08-24T01:16:19;2.00;;;1.73;;
12871;SDS011;6504;53.766;9.626;2023-08-24T01:18:54;2.00;;;1.90;;
12871;SDS011;6504;53.766;9.626;2023-08-24T01:21:23;2.20;;;2.00;;
12871;SDS011;6504;53.766;9.626;2023-08-24T01:23:53;2.67;;;2.47;;
12871;SDS011;6504;53.766;9.626;2023-08-24T01:26:32;3.13;;;2.70;;
12871;SDS011;6504;53.766;9.626;2023-08-24T01:29:01;3.20;;;3.00;;
12871;SDS011;6504;53.766;9.626;2023-08-24T01:31:31;2.97;;;2.77;;
12871;SDS011;6504;53.766;9.626;2023-08-24T01:34:00;3.07;;;2.87;;
12871;SDS011;6504;53.766;9.626;2023-08-24T01:36:28;2.93;;;2.73;;
12871;SDS011;6504;53.766;9.626;2023-08-24T01:38:58;2.57;;;2.37;;
12871;SDS011;6504;53.766;9.626;2023-08-24T01:41:35;2.60;;;2.40;;
12871;SDS011;6504;53.766;9.626;2023-08-24T01:44:05;2.57;;;2.37;;
12871;SDS011;6504;53.766;9.626;2023-08-24T01:46:34;2.27;;;2.07;;
12871;SDS011;6504;53.766;9.626;2023-08-24T01:49:04;2.93;;;2.30;;
12871;SDS011;6504;53.766;9.626;2023-08-24T01:51:34;3.00;;;2.40;;
12871;SDS011;6504;53.766;9.626;2023-08-24T01:54:03;2.47;;;2.27;;
12871;SDS011;6504;53.766;9.626;2023-08-24T01:56:31;2.33;;;2.03;;
12871;SDS011;6504;53.766;9.626;2023-08-24T01:59:02;2.33;;;2.13;;
12871;SDS011;6504;53.766;9.626;2023-08-24T02:01:30;3.60;;;2.63;;
12871;SDS011;6504;53.766;9.626;2023-08-24T02:03:58;2.47;;;2.27;;
12871;SDS011;6504;53.766;9.626;2023-08-24T02:06:26;2.70;;;2.50;;
12871;SDS011;6504;53.766;9.626;2023-08-24T02:08:54;3.20;;;2.77;;
12871;SDS011;6504;53.766;9.626;2023-08-24T02:11:22;3.70;;;2.67;;
12871;SDS011;6504;53.766;9.626;2023-08-24T02:13:50;2.83;;;2.57;;
12871;SDS011;6504;53.766;9.626;2023-08-24T02:16:20;2.60;;;2.40;;
12871;SDS011;6504;53.766;9.626;2023-08-24T02:18:48;3.03;;;2.83;;
12871;SDS011;6504;53.766;9.626;2023-08-24T02:21:17;2.87;;;2.57;;
12871;SDS011;6504;53.766;9.626;2023-08-24T02:23:45;2.43;;;2.23;;
12871;SDS011;6504;53.766;9.626;2023-08-24T02:26:13;2.40;;;2.30;;
12871;SDS011;6504;53.766;9.626;2023-08-24T02:28:41;2.50;;;2.30;;
12871;SDS011;6504;53.766;9.626;2023-08-24T02:31:09;2.77;;;2.30;;
12871;SDS011;6504;53.766;9.626;2023-08-24T02:33:38;1.83;;;1.70;;
12871;SDS011;6504;53.766;9.626;2023-08-24T02:36:06;2.23;;;1.80;;
12871;SDS011;6504;53.766;9.626;2023-08-24T02:38:34;1.77;;;1.67;;
12871;SDS011;6504;53.766;9.626;2023-08-24T02:41:03;1.60;;;1.50;;
12871;SDS011;6504;53.766;9.626;2023-08-24T02:43:32;3.20;;;2.50;;
12871;SDS011;6504;53.766;9.626;2023-08-24T02:46:01;3.03;;;2.83;;
12871;SDS011;6504;53.766;9.626;2023-08-24T02:48:31;3.10;;;2.90;;
12871;SDS011;6504;53.766;9.626;2023-08-24T02:51:01;3.00;;;2.70;;
12871;SDS011;6504;53.766;9.626;2023-08-24T02:53:30;3.03;;;2.83;;
12871;SDS011;6504;53.766;9.626;2023-08-24T02:55:58;2.73;;;2.53;;
12871;SDS011;6504;53.766;9.626;2023-08-24T02:58:27;2.90;;;2.60;;
12871;SDS011;6504;53.766;9.626;2023-08-24T03:00:55;2.60;;;2.40;;
12871;SDS011;6504;53.766;9.626;2023-08-24T03:03:24;2.90;;;2.70;;
12871;SDS011;6504;53.766;9.626;2023-08-24T03:05:55;3.33;;;2.93;;
12871;SDS011;6504;53.766;9.626;2023-08-24T03:08:25;2.73;;;2.53;;
12871;SDS011;6504;53.766;9.626;2023-08-24T03:10:53;2.83;;;2.53;;
12871;SDS011;6504;53.766;9.626;2023-08-24T03:13:22;2.43;;;2.23;;
12871;SDS011;6504;53.766;9.626;2023-08-24T03:15:50;2.50;;;2.40;;
12871;SDS011;6504;53.766;9.626;2023-08-24T03:18:18;2.40;;;2.20;;
12871;SDS011;6504;53.766;9.626;2023-08-24T03:20:48;2.20;;;2.03;;
12871;SDS011;6504;53.766;9.626;2023-08-24T03:23:16;2.47;;;2.37;;
12871;SDS011;6504;53.766;9.626;2023-08-24T03:25:46;2.70;;;2.50;;
12871;SDS011;6504;53.766;9.626;2023-08-24T03:28:14;2.23;;;2.10;;
12871;SDS011;6504;53.766;9.626;2023-08-24T03:30:45;1.90;;;1.80;;
12871;SDS011;6504;53.766;9.626;2023-08-24T03:33:14;2.73;;;2.20;;
12871;SDS011;6504;53.766;9.626;2023-08-24T03:35:43;2.30;;;2.20;;
12871;SDS011;6504;53.766;9.626;2023-08-24T03:38:11;2.73;;;2.37;;
12871;SDS011;6504;53.766;9.626;2023-08-24T03:40:39;3.20;;;3.00;;
12871;SDS011;6504;53.766;9.626;2023-08-24T03:43:09;3.27;;;3.07;;
12871;SDS011;6504;53.766;9.626;2023-08-24T03:45:37;3.47;;;3.17;;
12871;SDS011;6504;53.766;9.626;2023-08-24T03:48:05;3.73;;;3.50;;
12871;SDS011;6504;53.766;9.626;2023-08-24T03:50:34;3.70;;;3.50;;
12871;SDS011;6504;53.766;9.626;2023-08-24T03:53:02;3.90;;;3.60;;
12871;SDS011;6504;53.766;9.626;2023-08-24T03:55:31;4.40;;;4.00;;
12871;SDS011;6504;53.766;9.626;2023-08-24T03:58:00;4.30;;;4.00;;
12871;SDS011;6504;53.766;9.626;2023-08-24T04:00:30;4.17;;;3.87;;
12871;SDS011;6504;53.766;9.626;2023-08-24T04:02:58;5.13;;;4.73;;
12871;SDS011;6504;53.766;9.626;2023-08-24T04:05:26;4.33;;;4.03;;
12871;SDS011;6504;53.766;9.626;2023-08-24T04:07:55;3.83;;;3.63;;
12871;SDS011;6504;53.766;9.626;2023-08-24T04:10:23;3.87;;;3.57;;
12871;SDS011;6504;53.766;9.626;2023-08-24T04:12:51;3.40;;;3.10;;
12871;SDS011;6504;53.766;9.626;2023-08-24T04:15:19;3.60;;;3.40;;
12871;SDS011;6504;53.766;9.626;2023-08-24T04:17:48;3.40;;;3.20;;
12871;SDS011;6504;53.766;9.626;2023-08-24T04:20:17;4.33;;;4.03;;
12871;SDS011;6504;53.766;9.626;2023-08-24T04:22:45;3.70;;;3.50;;
12871;SDS011;6504;53.766;9.626;2023-08-24T04:25:13;3.07;;;2.87;;
12871;SDS011;6504;53.766;9.626;2023-08-24T04:27:41;4.10;;;3.80;;
12871;SDS011;6504;53.766;9.626;2023-08-24T04:30:10;4.63;;;4.20;;
12871;SDS011;6504;53.766;9.626;2023-08-24T04:32:40;4.30;;;4.00;;
12871;SDS011;6504;53.766;9.626;2023-08-24T04:35:09;5.77;;;5.27;;
12871;SDS011;6504;53.766;9.626;2023-08-24T04:37:37;7.57;;;6.83;;
12871;SDS011;6504;53.766;9.626;2023-08-24T04:40:06;5.87;;;5.40;;
12871;SDS011;6504;53.766;9.626;2023-08-24T04:42:35;5.03;;;4.63;;
12871;SDS011;6504;53.766;9.626;2023-08-24T04:45:04;4.67;;;4.37;;
12871;SDS011;6504;53.766;9.626;2023-08-24T04:47:33;4.00;;;3.70;;
12871;SDS011;6504;53.766;9.626;2023-08-24T04:50:02;4.23;;;3.93;;
12871;SDS011;6504;53.766;9.626;2023-08-24T04:52:32;5.83;;;4.27;;
12871;SDS011;6504;53.766;9.626;2023-08-24T04:55:01;4.73;;;4.30;;
12871;SDS011;6504;53.766;9.626;2023-08-24T04:57:30;4.73;;;4.33;;
12871;SDS011;6504;53.766;9.626;2023-08-24T04:59:58;4.00;;;3.70;;
12871;SDS011;6504;53.766;9.626;2023-08-24T05:02:26;4.17;;;3.60;;
12871;SDS011;6504;53.766;9.626;2023-08-24T05:04:54;3.87;;;3.57;;
12871;SDS011;6504;53.766;9.626;2023-08-24T05:07:22;3.80;;;3.50;;
12871;SDS011;6504;53.766;9.626;2023-08-24T05:09:51;3.47;;;3.27;;
12871;SDS011;6504;53.766;9.626;2023-08-24T05:12:21;2.90;;;2.70;;
12871;SDS011;6504;53.766;9.626;2023-08-24T05:14:49;2.67;;;2.47;;
12871;SDS011;6504;53.766;9.626;2023-08-24T05:17:17;2.70;;;2.50;;
12871;SDS011;6504;53.766;9.626;2023-08-24T05:19:46;3.43;;;3.13;;
12871;SDS011;6504;53.766;9.626;2023-08-24T05:22:18;3.60;;;3.30;;
12871;SDS011;6504;53.766;9.626;2023-08-24T05:24:46;4.73;;;4.33;;
12871;SDS011;6504;53.766;9.626;2023-08-24T05:27:15;5.03;;;4.63;;
12871;SDS011;6504;53.766;9.626;2023-08-24T05:29:43;3.90;;;3.60;;
12871;SDS011;6504;53.766;9.626;2023-08-24T05:32:11;4.07;;;3.77;;
12871;SDS011;6504;53.766;9.626;2023-08-24T05:34:40;4.43;;;4.03;;
12871;SDS011;6504;53.766;9.626;2023-08-24T05:37:08;4.50;;;4.20;;
12871;SDS011;6504;53.766;9.626;2023-08-24T05:39:36;4.50;;;4.10;;
12871;SDS011;6504;53.766;9.626;2023-08-24T05:42:04;4.67;;;4.27;;
12871;SDS011;6504;53.766;9.626;2023-08-24T05:44:34;4.00;;;3.70;;
12871;SDS011;6504;53.766;9.626;2023-08-24T05:47:02;3.97;;;3.67;;
12871;SDS011;6504;53.766;9.626;2023-08-24T05:49:31;3.60;;;3.30;;
12871;SDS011;6504;53.766;9.626;2023-08-24T05:51:59;3.20;;;3.00;;
12871;SDS011;6504;53.766;9.626;2023-08-24T05:54:27;2.80;;;2.60;;
12871;SDS011;6504;53.766;9.626;2023-08-24T05:56:55;2.60;;;2.40;;
12871;SDS011;6504;53.766;9.626;2023-08-24T05:59:26;2.57;;;2.30;;
12871;SDS011;6504;53.766;9.626;2023-08-24T06:01:56;2.63;;;2.43;;
12871;SDS011;6504;53.766;9.626;2023-08-24T06:04:24;2.17;;;2.07;;
12871;SDS011;6504;53.766;9.626;2023-08-24T06:06:52;2.80;;;1.97;;
12871;SDS011;6504;53.766;9.626;2023-08-24T06:09:20;1.90;;;1.80;;
12871;SDS011;6504;53.766;9.626;2023-08-24T06:11:48;2.67;;;2.47;;
12871;SDS011;6504;53.766;9.626;2023-08-24T06:14:16;2.80;;;2.60;;
12871;SDS011;6504;53.766;9.626;2023-08-24T06:16:44;2.20;;;2.10;;
12871;SDS011;6504;53.766;9.626;2023-08-24T06:19:16;2.40;;;2.20;;
12871;SDS011;6504;53.766;9.626;2023-08-24T06:21:44;2.30;;;2.13;;
12871;SDS011;6504;53.766;9.626;2023-08-24T06:24:12;2.33;;;2.13;;
12871;SDS011;6504;53.766;9.626;2023-08-24T06:26:40;2.53;;;2.30;;
12871;SDS011;6504;53.766;9.626;2023-08-24T06:29:08;2.60;;;2.40;;
12871;SDS011;6504;53.766;9.626;2023-08-24T06:31:36;4.50;;;4.10;;
12871;SDS011;6504;53.766;9.626;2023-08-24T06:34:04;4.47;;;4.07;;
12871;SDS011;6504;53.766;9.626;2023-08-24T06:36:33;5.17;;;4.67;;
12871;SDS011;6504;53.766;9.626;2023-08-24T06:39:02;5.00;;;4.60;;
12871;SDS011;6504;53.766;9.626;2023-08-24T06:41:32;5.33;;;4.87;;
12871;SDS011;6504;53.766;9.626;2023-08-24T06:44:01;5.80;;;5.20;;
12871;SDS011;6504;53.766;9.626;2023-08-24T06:46:29;6.53;;;5.03;;
12871;SDS011;6504;53.766;9.626;2023-08-24T06:48:57;6.37;;;5.77;;
12871;SDS011;6504;53.766;9.626;2023-08-24T06:51:26;5.57;;;4.70;;
12871;SDS011;6504;53.766;9.626;2023-08-24T06:53:56;6.27;;;5.20;;
12871;SDS011;6504;53.766;9.626;2023-08-24T06:56:24;8.10;;;5.60;;
12871;SDS011;6504;53.766;9.626;2023-08-24T06:58:52;7.87;;;6.90;;
12871;SDS011;6504;53.766;9.626;2023-08-24T07:01:20;7.93;;;7.23;;
12871;SDS011;6504;53.766;9.626;2023-08-24T07:03:48;9.80;;;7.23;;
12871;SDS011;6504;53.766;9.626;2023-08-24T07:06:16;8.57;;;7.67;;
12871;SDS011;6504;53.766;9.626;2023-08-24T07:08:44;8.20;;;7.30;;
12871;SDS011;6504;53.766;9.626;2023-08-24T07:11:14;8.40;;;6.33;;
12871;SDS011;6504;53.766;9.626;2023-08-24T07:13:43;6.80;;;6.10;;
12871;SDS011;6504;53.766;9.626;2023-08-24T07:16:12;8.20;;;6.73;;
12871;SDS011;6504;53.766;9.626;2023-08-24T07:18:40;8.17;;;4.97;;
12871;SDS011;6504;53.766;9.626;2023-08-24T07:21:08;8.53;;;5.80;;
12871;SDS011;6504;53.766;9.626;2023-08-24T07:23:36;6.07;;;5.47;;
12871;SDS011;6504;53.766;9.626;2023-08-24T07:26:04;7.93;;;5.23;;
12871;SDS011;6504;53.766;9.626;2023-08-24T07:28:34;9.30;;;6.53;;
12871;SDS011;6504;53.766;9.626;2023-08-24T07:31:06;6.07;;;5.30;;
12871;SDS011;6504;53.766;9.626;2023-08-24T07:33:35;8.33;;;5.93;;
12871;SDS011;6504;53.766;9.626;2023-08-24T07:36:03;10.27;;;6.57;;
12871;SDS011;6504;53.766;9.626;2023-08-24T07:38:31;6.33;;;5.73;;
12871;SDS011;6504;53.766;9.626;2023-08-24T07:41:00;6.10;;;5.50;;
12871;SDS011;6504;53.766;9.626;2023-08-24T07:43:28;7.57;;;5.10;;
12871;SDS011;6504;53.766;9.626;2023-08-24T07:45:58;7.40;;;3.67;;
12871;SDS011;6504;53.766;9.626;2023-08-24T07:48:26;4.60;;;3.57;;
12871;SDS011;6504;53.766;9.626;2023-08-24T07:50:54;4.63;;;3.37;;
12871;SDS011;6504;53.766;9.626;2023-08-24T07:53:22;5.07;;;2.93;;
12871;SDS011;6504;53.766;9.626;2023-08-24T07:55:52;3.93;;;2.97;;
12871;SDS011;6504;53.766;9.626;2023-08-24T07:58:20;3.80;;;2.60;;
12871;SDS011;6504;53.766;9.626;2023-08-24T08:00:49;5.27;;;2.40;;
12871;SDS011;6504;53.766;9.626;2023-08-24T08:03:19;4.00;;;1.93;;
12871;SDS011;6504;53.766;9.626;2023-08-24T08:05:47;3.20;;;1.70;;
12871;SDS011;6504;53.766;9.626;2023-08-24T08:08:15;4.47;;;1.50;;
12871;SDS011;6504;53.766;9.626;2023-08-24T08:10:44;4.97;;;1.50;;
12871;SDS011;6504;53.766;9.626;2023-08-24T08:13:12;2.33;;;1.60;;
12871;SDS011;6504;53.766;9.626;2023-08-24T08:15:40;3.93;;;1.80;;
12871;SDS011;6504;53.766;9.626;2023-08-24T08:18:08;3.93;;;1.67;;
12871;SDS011;6504;53.766;9.626;2023-08-24T08:20:37;3.80;;;1.40;;
12871;SDS011;6504;53.766;9.626;2023-08-24T08:23:07;2.37;;;1.40;;
12871;SDS011;6504;53.766;9.626;2023-08-24T08:25:35;3.70;;;1.50;;
12871;SDS011;6504;53.766;9.626;2023-08-24T08:28:03;4.10;;;1.63;;
12871;SDS011;6504;53.766;9.626;2023-08-24T08:30:31;4.37;;;1.67;;
12871;SDS011;6504;53.766;9.626;2023-08-24T08:32:59;4.23;;;1.90;;
12871;SDS011;6504;53.766;9.626;2023-08-24T08:35:28;4.03;;;1.70;;
12871;SDS011;6504;53.766;9.626;2023-08-24T08:37:57;2.87;;;1.47;;
12871;SDS011;6504;53.766;9.626;2023-08-24T08:40:25;3.20;;;1.60;;
12871;SDS011;6504;53.766;9.626;2023-08-24T08:42:57;3.60;;;1.47;;
12871;SDS011;6504;53.766;9.626;2023-08-24T08:45:25;4.30;;;1.57;;
12871;SDS011;6504;53.766;9.626;2023-08-24T08:47:56;2.90;;;1.23;;
12871;SDS011;6504;53.766;9.626;2023-08-24T08:50:25;2.17;;;1.07;;
12871;SDS011;6504;53.766;9.626;2023-08-24T08:52:58;2.97;;;1.37;;
12871;SDS011;6504;53.766;9.626;2023-08-24T08:55:26;3.23;;;1.20;;
12871;SDS011;6504;53.766;9.626;2023-08-24T08:57:56;2.63;;;1.30;;
12871;SDS011;6504;53.766;9.626;2023-08-24T09:00:26;2.00;;;1.37;;
12871;SDS011;6504;53.766;9.626;2023-08-24T09:02:55;2.40;;;1.17;;
12871;SDS011;6504;53.766;9.626;2023-08-24T09:05:26;3.13;;;1.30;;
12871;SDS011;6504;53.766;9.626;2023-08-24T09:07:54;3.03;;;1.20;;
12871;SDS011;6504;53.766;9.626;2023-08-24T09:10:27;4.70;;;1.60;;
12871;SDS011;6504;53.766;9.626;2023-08-24T09:12:55;2.90;;;1.70;;
12871;SDS011;6504;53.766;9.626;2023-08-24T09:15:23;4.63;;;1.80;;
12871;SDS011;6504;53.766;9.626;2023-08-24T09:17:53;2.30;;;1.70;;
12871;SDS011;6504;53.766;9.626;2023-08-24T09:20:22;3.30;;;2.10;;
12871;SDS011;6504;53.766;9.626;2023-08-24T09:22:54;2.60;;;1.70;;
12871;SDS011;6504;53.766;9.626;2023-08-24T09:25:23;2.97;;;1.60;;
12871;SDS011;6504;53.766;9.626;2023-08-24T09:27:59;3.60;;;2.20;;
12871;SDS011;6504;53.766;9.626;2023-08-24T09:30:34;4.53;;;1.97;;
12871;SDS011;6504;53.766;9.626;2023-08-24T09:33:04;3.97;;;1.60;;
12871;SDS011;6504;53.766;9.626;2023-08-24T09:35:36;3.57;;;1.33;;
12871;SDS011;6504;53.766;9.626;2023-08-24T09:38:17;2.03;;;1.30;;
12871;SDS011;6504;53.766;9.626;2023-08-24T09:40:45;3.70;;;1.27;;
12871;SDS011;6504;53.766;9.626;2023-08-24T09:43:16;2.93;;;1.17;;
12871;SDS011;6504;53.766;9.626;2023-08-24T09:45:48;2.10;;;1.43;;
12871;SDS011;6504;53.766;9.626;2023-08-24T09:48:16;2.90;;;1.30;;
12871;SDS011;6504;53.766;9.626;2023-08-24T09:50:45;2.33;;;1.50;;
12871;SDS011;6504;53.766;9.626;2023-08-24T09:53:15;2.63;;;1.10;;
12871;SDS011;6504;53.766;9.626;2023-08-24T09:55:48;2.77;;;1.10;;
12871;SDS011;6504;53.766;9.626;2023-08-24T09:58:22;3.10;;;1.50;;
12871;SDS011;6504;53.766;9.626;2023-08-24T10:00:51;1.70;;;1.00;;
12871;SDS011;6504;53.766;9.626;2023-08-24T10:03:20;2.50;;;1.30;;
12871;SDS011;6504;53.766;9.626;2023-08-24T10:05:53;2.67;;;1.30;;
12871;SDS011;6504;53.766;9.626;2023-08-24T10:08:34;1.93;;;1.20;;
12871;SDS011;6504;53.766;9.626;2023-08-24T10:11:05;3.37;;;1.43;;
12871;SDS011;6504;53.766;9.626;2023-08-24T10:13:41;3.80;;;1.40;;
12871;SDS011;6504;53.766;9.626;2023-08-24T10:16:15;2.13;;;1.23;;
12871;SDS011;6504;53.766;9.626;2023-08-24T10:18:44;2.70;;;1.20;;
12871;SDS011;6504;53.766;9.626;2023-08-24T10:21:14;3.10;;;1.77;;
12871;SDS011;6504;53.766;9.626;2023-08-24T10:23:43;3.07;;;1.20;;
12871;SDS011;6504;53.766;9.626;2023-08-24T10:26:13;1.30;;;1.20;;
12871;SDS011;6504;53.766;9.626;2023-08-24T10:28:45;2.83;;;1.10;;
12871;SDS011;6504;53.766;9.626;2023-08-24T10:31:15;3.90;;;1.60;;
12871;SDS011;6504;53.766;9.626;2023-08-24T10:33:43;1.60;;;1.10;;
12871;SDS011;6504;53.766;9.626;2023-08-24T10:36:12;3.37;;;1.70;;
12871;SDS011;6504;53.766;9.626;2023-08-24T10:38:41;5.20;;;2.00;;
12871;SDS011;6504;53.766;9.626;2023-08-24T10:41:10;2.43;;;1.70;;
12871;SDS011;6504;53.766;9.626;2023-08-24T10:43:41;3.37;;;1.90;;
12871;SDS011;6504;53.766;9.626;2023-08-24T10:46:17;4.03;;;1.63;;
12871;SDS011;6504;53.766;9.626;2023-08-24T10:48:57;4.50;;;2.10;;
12871;SDS011;6504;53.766;9.626;2023-08-24T10:51:25;2.57;;;1.70;;
12871;SDS011;6504;53.766;9.626;2023-08-24T10:53:55;2.87;;;1.90;;
12871;SDS011;6504;53.766;9.626;2023-08-24T10:56:29;4.87;;;2.20;;
12871;SDS011;6504;53.766;9.626;2023-08-24T10:59:13;3.27;;;2.20;;
12871;SDS011;6504;53.766;9.626;2023-08-24T11:01:43;3.97;;;2.30;;
12871;SDS011;6504;53.766;9.626;2023-08-24T11:04:22;5.80;;;2.27;;
12871;SDS011;6504;53.766;9.626;2023-08-24T11:06:52;3.13;;;2.23;;
12871;SDS011;6504;53.766;9.626;2023-08-24T11:09:22;4.20;;;2.10;;
12871;SDS011;6504;53.766;9.626;2023-08-24T11:11:57;3.07;;;2.10;;
12871;SDS011;6504;53.766;9.626;2023-08-24T11:14:27;3.10;;;2.27;;
12871;SDS011;6504;53.766;9.626;2023-08-24T11:16:58;3.00;;;1.77;;
12871;SDS011;6504;53.766;9.626;2023-08-24T11:19:27;2.97;;;2.10;;
12871;SDS011;6504;53.766;9.626;2023-08-24T11:21:57;4.27;;;2.53;;
12871;SDS011;6504;53.766;9.626;2023-08-24T11:24:25;3.47;;;2.07;;
12871;SDS011;6504;53.766;9.626;2023-08-24T11:26:55;5.10;;;1.97;;
12871;SDS011;6504;53.766;9.626;2023-08-24T11:29:28;2.70;;;2.00;;
12871;SDS011;6504;53.766;9.626;2023-08-24T11:31:57;4.03;;;2.23;;
12871;SDS011;6504;53.766;9.626;2023-08-24T11:34:25;4.53;;;2.30;;
12871;SDS011;6504;53.766;9.626;2023-08-24T11:36:53;3.33;;;1.80;;
12871;SDS011;6504;53.766;9.626;2023-08-24T11:39:22;3.47;;;2.00;;
12871;SDS011;6504;53.766;9.626;2023-08-24T11:41:59;3.07;;;1.87;;
12871;SDS011;6504;53.766;9.626;2023-08-24T11:44:29;3.07;;;1.90;;
12871;SDS011;6504;53.766;9.626;2023-08-24T11:46:57;2.37;;;1.40;;
12871;SDS011;6504;53.766;9.626;2023-08-24T11:49:26;3.93;;;1.70;;
12871;SDS011;6504;53.766;9.626;2023-08-24T11:51:55;3.20;;;1.90;;
12871;SDS011;6504;53.766;9.626;2023-08-24T11:54:24;4.00;;;1.70;;
12871;SDS011;6504;53.766;9.626;2023-08-24T11:56:52;4.57;;;1.83;;
12871;SDS011;6504;53.766;9.626;2023-08-24T11:59:20;3.33;;;1.73;;
12871;SDS011;6504;53.766;9.626;2023-08-24T12:01:50;2.93;;;1.53;;
12871;SDS011;6504;53.766;9.626;2023-08-24T12:04:19;2.13;;;1.40;;
12871;SDS011;6504;53.766;9.626;2023-08-24T12:06:47;2.87;;;1.73;;
12871;SDS011;6504;53.766;9.626;2023-08-24T12:09:15;2.27;;;1.77;;
12871;SDS011;6504;53.766;9.626;2023-08-24T12:11:43;4.30;;;1.80;;
12871;SDS011;6504;53.766;9.626;2023-08-24T12:14:16;3.40;;;1.80;;
12871;SDS011;6504;53.766;9.626;2023-08-24T12:16:44;2.57;;;1.70;;
12871;SDS011;6504;53.766;9.626;2023-08-24T12:19:14;1.83;;;1.50;;
12871;SDS011;6504;53.766;9.626;2023-08-24T12:21:43;5.40;;;2.00;;
12871;SDS011;6504;53.766;9.626;2023-08-24T12:24:13;3.70;;;2.00;;
12871;SDS011;6504;53.766;9.626;2023-08-24T12:26:41;3.53;;;1.43;;
12871;SDS011;6504;53.766;9.626;2023-08-24T12:29:09;3.20;;;1.80;;
12871;SDS011;6504;53.766;9.626;2023-08-24T12:31:40;2.00;;;1.67;;
12871;SDS011;6504;53.766;9.626;2023-08-24T12:34:14;3.97;;;1.80;;
12871;SDS011;6504;53.766;9.626;2023-08-24T12:36:44;4.07;;;1.70;;
12871;SDS011;6504;53.766;9.626;2023-08-24T12:39:12;3.90;;;1.67;;
12871;SDS011;6504;53.766;9.626;2023-08-24T12:41:41;2.93;;;1.40;;
12871;SDS011;6504;53.766;9.626;2023-08-24T12:44:09;4.10;;;1.70;;
12871;SDS011;6504;53.766;9.626;2023-08-24T12:46:40;4.17;;;1.60;;
12871;SDS011;6504;53.766;9.626;2023-08-24T12:49:09;3.63;;;1.83;;
12871;SDS011;6504;53.766;9.626;2023-08-24T12:51:38;3.43;;;1.80;;
12871;SDS011;6504;53.766;9.626;2023-08-24T12:54:07;2.00;;;1.50;;
12871;SDS011;6504;53.766;9.626;2023-08-24T12:56:38;2.17;;;1.70;;
12871;SDS011;6504;53.766;9.626;2023-08-24T12:59:07;3.63;;;1.73;;
12871;SDS011;6504;53.766;9.626;2023-08-24T13:01:35;3.23;;;1.80;;
12871;SDS011;6504;53.766;9.626;2023-08-24T13:04:03;3.60;;;2.00;;
12871;SDS011;6504;53.766;9.626;2023-08-24T13:06:32;3.60;;;1.90;;
12871;SDS011;6504;53.766;9.626;2023-08-24T13:09:02;2.63;;;1.90;;
12871;SDS011;6504;53.766;9.626;2023-08-24T13:11:31;4.60;;;2.10;;
12871;SDS011;6504;53.766;9.626;2023-08-24T13:14:00;3.60;;;1.90;;
12871;SDS011;6504;53.766;9.626;2023-08-24T13:16:28;2.50;;;1.80;;
12871;SDS011;6504;53.766;9.626;2023-08-24T13:18:56;3.50;;;2.13;;
12871;SDS011;6504;53.766;9.626;2023-08-24T13:21:24;4.43;;;2.30;;
12871;SDS011;6504;53.766;9.626;2023-08-24T13:23:53;4.63;;;2.40;;
12871;SDS011;6504;53.766;9.626;2023-08-24T13:26:22;2.77;;;2.23;;
12871;SDS011;6504;53.766;9.626;2023-08-24T13:28:51;2.37;;;2.10;;
12871;SDS011;6504;53.766;9.626;2023-08-24T13:31:19;4.73;;;2.00;;
12871;SDS011;6504;53.766;9.626;2023-08-24T13:33:47;3.40;;;2.10;;
12871;SDS011;6504;53.766;9.626;2023-08-24T13:36:15;3.83;;;2.53;;
12871;SDS011;6504;53.766;9.626;2023-08-24T13:38:43;3.80;;;2.43;;
12871;SDS011;6504;53.766;9.626;2023-08-24T13:41:12;2.87;;;2.30;;
12871;SDS011;6504;53.766;9.626;2023-08-24T13:43:41;6.03;;;2.47;;
12871;SDS011;6504;53.766;9.626;2023-08-24T13:46:10;3.57;;;2.40;;
12871;SDS011;6504;53.766;9.626;2023-08-24T13:48:38;3.00;;;2.23;;
12871;SDS011;6504;53.766;9.626;2023-08-24T13:51:06;5.20;;;2.53;;
12871;SDS011;6504;53.766;9.626;2023-08-24T13:53:35;5.03;;;2.30;;
12871;SDS011;6504;53.766;9.626;2023-08-24T13:56:04;4.07;;;2.70;;
12871;SDS011;6504;53.766;9.626;2023-08-24T13:58:32;4.73;;;2.40;;
12871;SDS011;6504;53.766;9.626;2023-08-24T14:01:02;2.87;;;2.30;;
12871;SDS011;6504;53.766;9.626;2023-08-24T14:03:30;3.83;;;2.30;;
12871;SDS011;6504;53.766;9.626;2023-08-24T14:05:58;4.40;;;2.30;;
12871;SDS011;6504;53.766;9.626;2023-08-24T14:08:27;3.57;;;2.10;;
12871;SDS011;6504;53.766;9.626;2023-08-24T14:10:55;5.80;;;2.80;;
12871;SDS011;6504;53.766;9.626;2023-08-24T14:13:23;5.40;;;2.90;;
12871;SDS011;6504;53.766;9.626;2023-08-24T14:15:52;3.70;;;2.30;;
12871;SDS011;6504;53.766;9.626;2023-08-24T14:18:21;4.70;;;2.20;;
12871;SDS011;6504;53.766;9.626;2023-08-24T14:20:49;3.80;;;2.30;;
12871;SDS011;6504;53.766;9.626;2023-08-24T14:23:18;2.80;;;2.30;;
12871;SDS011;6504;53.766;9.626;2023-08-24T14:25:46;3.53;;;2.37;;
12871;SDS011;6504;53.766;9.626;2023-08-24T14:28:21;3.87;;;2.60;;
12871;SDS011;6504;53.766;9.626;2023-08-24T14:30:50;2.73;;;2.23;;
12871;SDS011;6504;53.766;9.626;2023-08-24T14:33:18;3.97;;;2.30;;
12871;SDS011;6504;53.766;9.626;2023-08-24T14:35:51;3.77;;;2.43;;
12871;SDS011;6504;53.766;9.626;2023-08-24T14:38:20;6.63;;;3.10;;
12871;SDS011;6504;53.766;9.626;2023-08-24T14:40:48;4.33;;;2.50;;
12871;SDS011;6504;53.766;9.626;2023-08-24T14:43:16;4.23;;;2.40;;
12871;SDS011;6504;53.766;9.626;2023-08-24T14:45:44;6.37;;;2.13;;
12871;SDS011;6504;53.766;9.626;2023-08-24T14:48:12;3.30;;;2.13;;
12871;SDS011;6504;53.766;9.626;2023-08-24T14:50:41;5.37;;;2.40;;
12871;SDS011;6504;53.766;9.626;2023-08-24T14:53:10;5.20;;;2.63;;
12871;SDS011;6504;53.766;9.626;2023-08-24T14:55:38;4.40;;;2.60;;
12871;SDS011;6504;53.766;9.626;2023-08-24T14:58:07;4.23;;;2.70;;
12871;SDS011;6504;53.766;9.626;2023-08-24T15:00:35;6.80;;;2.67;;
12871;SDS011;6504;53.766;9.626;2023-08-24T15:03:03;4.17;;;2.60;;
12871;SDS011;6504;53.766;9.626;2023-08-24T15:05:36;3.77;;;2.70;;
12871;SDS011;6504;53.766;9.626;2023-08-24T15:08:05;3.13;;;2.50;;
12871;SDS011;6504;53.766;9.626;2023-08-24T15:10:35;3.10;;;2.50;;
12871;SDS011;6504;53.766;9.626;2023-08-24T15:13:03;3.80;;;2.70;;